AirNav   Free Bose QuietComfort 20
 
 632 users online  

FL39 Wellington Medical Center Heliport
West Palm Beach, Florida, USA

GOING TO WEST PALM BEACH?


FAA INFORMATION EFFECTIVE 05 DECEMBER 2019

Location

FAA Identifier: FL39
Lat/Long: 26-38-15.2430N 080-12-16.1640W
26-38.254050N 080-12.269400W
26.6375675,-80.2044900
(estimated)
Elevation: 60 ft. / 18 m (estimated)
Variation: 04W (1990)
From city: 1 mile N of WEST PALM BEACH, FL
Time zone: UTC -5 (UTC -4 during Daylight Saving Time)
Zip code: 33467

Heliport Operations

Heliport use: Private use, MEDICAL USE.
Activation date: 04/1993
Control tower: no
ARTCC: MIAMI CENTER
FSS: MIAMI FLIGHT SERVICE STATION
Attendance: CONTINUOUS
Wind indicator: yes
Segmented circle: no

Heliport Communications

WX ASOS at PBI (6 nm NE): 123.75 (561-683-2548)
WX AWOS-3PT at LNA (7 nm SE): 119.925 (561-964-0308)
WX AWOS-3 at F45 (13 nm N): 119.975 (561-630-6932)
WX AWOS-3 at BCT (16 nm S): 121.125 (561-391-2696)

Nearby radio navigation aids

VOR radial/distance  VOR name  Freq  Var
PBIr251/6.8PALM BEACH VORTAC115.7003W
PHKr108/27.5PAHOKEE VOR/DME115.4000E
FLLr003/33.9FORT LAUDERDALE VOR/DME114.4006W

 
NDB name  Hdg/Dist  Freq  Var  ID
UNITED162/17.740505WUTX ..- - -..-

Heliport Services

Runway Information

Helipad H1

Dimensions: 100 x 100 ft. / 30 x 30 m
Surface: concrete, in good condition
Traffic pattern: leftleft

Heliport Ownership and Management from official FAA records

Ownership: Privately-owned
Owner: WELLINGTON REGIONAL MEDICAL C
10101 FOREST HILL BLVD.
WEST PALM BEACH, FL 33414
Phone 407-798-8500
Manager: MIKE DONALS
10101 FORREST HILL BLVD.
WELLINGTON, FL 33414
Phone 561-798-8598

Additional Remarks

FOR CD CTC PALM BEACH APCH AT 561-275-1430

Instrument Procedures

There are no published instrument procedures at FL39.

Some nearby airports with instrument procedures:

KPBI - Palm Beach International Airport (6 nm NE)
KLNA - Palm Beach County Park Airport (7 nm SE)
F45 - North Palm Beach County General Aviation Airport (13 nm N)
KBCT - Boca Raton Airport (16 nm S)
06FA - William P Gwinn Airport (18 nm N)
 
Loc | Ops | Rwys | IFR | FBO | Links
Com | Nav | Svcs | Stats | Notes

Reliance Aviation
AirBoss

 
Area around FL39 (Wellington Medical Center Heliport)
 
Road maps at: MapQuest Bing Google
 
Aerial photo
No photo
 
Sectional chart

 
Airport distance calculator
Flying to Wellington Medical Center Heliport? Find the distance to fly.

From to FL39

Sunrise and sunset
Times for 07-Dec-2019
 Local
(UTC-5)
 Zulu
(UTC)
Morning civil twilight06:3211:32
Sunrise06:5711:57
Sunset17:2722:27
Evening civil twilight17:5222:52

Current date and time
Zulu (UTC)  08-Dec-2019 03:51:08
Local (UTC-5)  07-Dec-2019 22:51:08
 
METAR
KPBI 
6nm NE 
080253Z 00000KT 10SM BKN120 20/14 A3015 RMK AO2 SLP209 T02000139 51005 $
KLNA 
7nm SE 
080335Z AUTO 00000KT 10SM SCT120 20/15 A3015 RMK AO2 T01950153 PNO
KF45 
13nm N 
080330Z AUTO 01003KT 10SM OVC110 18/17 A3016 RMK AO2 TSNO
KBCT 
16nm S 
072347Z 04004KT 10SM CLR 21/13 A3013
TAF
KPBI 
6nm NE 
072105Z 0721/0818 05008KT P6SM SCT120 SCT250 FM080000 VRB03KT P6SM FEW030 FEW250 FM081500 06006KT P6SM FEW030
NOTAMs
Click for the latest NOTAMs
NOTAMs are issued by the DoD/FAA and will open in a separate window not controlled by AirNav.

 

 
 

Would you like to see your business listed on this page?

 If your business provides an interesting product or service to pilots, flight crews, aircraft, or users of the Wellington Medical Center Heliport, you should consider listing it here.  To start the listing process, click on the button below
 
Add a business
 

Other Pages about Wellington Medical Center Heliport

Update a link
 
Copyright © AirNav, LLC. All rights reserved. Privacy Policy  Contact